Information Last Ob Photographs Meteogram Network Table Neighbors Monthly Summaries Observation History Wind Roses Custom Wind Roses Data Calendar Satellite Cloud Product Download

18 January 2022 Observation History, [EFK] Newport, timezone: America/New_York

Select Date: Time Order:

Show METARs   Show High Frequency MADIS

Previous Day
Time Wind
(mph)
Vis.
(mi.)
Sky Cond.
(100s ft)
Present Wx Temperature (ºF) Relative
Humidity
Pressure Snow
Depth
(in)
Precipitation (in.)
Air Dwpt Feels Like 6 hour altimeter
(in.)
sea level
(mb)
1 hr 3 hr 6 hr
Max.Min.
12:15 AMWSW 70.75 OVC013
-SN232114 92% 29.20
KEFK 180515Z AUTO 25006KT 3/4SM -SN OVC013 M05/M06 A2920 RMK AO2 T10521063
12:35 AMSW 82.5 BKN013
OVC019
-SN211812 86% 29.220
KEFK 180535Z AUTO 22007KT 2 1/2SM -SN BKN013 OVC019 M06/M08 A2922 RMK AO2 T10601080
12:55 AMW 62 OVC018
-SN211613 33 21 82% 29.240
KEFK 180555Z AUTO 28005KT 2SM -SN OVC018 M06/M09 A2924 RMK AO2 VIS 1V3 T10631088 10005 21063
1:15 AMCalm2.5 OVC016
-SN201720 86% 29.250
KEFK 180615Z AUTO 00000KT 2 1/2SM -SN OVC016 M06/M08 A2925 RMK AO2 VIS 1 3/4V4 T10651085
1:35 AMWSW 73 OVC018
-SN201511 82% 29.270
KEFK 180635Z AUTO 24006KT 3SM -SN OVC018 M07/M09 A2927 RMK AO2 T10671092
1:55 AMW 12G 171.75 OVC018
-SN19167 85% 29.290
KEFK 180655Z AUTO 26010G15KT 210V280 1 3/4SM -SN OVC018 M07/M09 A2929 RMK AO2 T10701091
2:15 AMW 121.25 BKN016
OVC022
-SN19166 90% 29.30
KEFK 180715Z AUTO 27010KT 140V300 1 1/4SM -SN BKN016 OVC022 M07/M09 A2930 RMK AO2 T10741088
2:35 AMW 9G 161.25 OVC016
-SN18157 87% 29.320
KEFK 180735Z AUTO 28008G14KT 1 1/4SM -SN OVC016 M08/M09 A2932 RMK AO2 T10771095
2:55 AMW 12G 202 OVC020
-SN18145 84% 29.340
KEFK 180755Z AUTO 27010G17KT 240V320 2SM -SN OVC020 M08/M10 A2934 RMK AO2 T10801103
3:15 AMW 10G 172 OVC020
-SN17135 82% 29.370
KEFK 180815Z AUTO 26009G15KT 2SM -SN OVC020 M08/M11 A2937 RMK AO2 T10821107
3:35 AMWNW 14G 233 OVC020
-SN17113 77% 29.380
KEFK 180835Z AUTO 29012G20KT 3SM -SN OVC020 M08/M11 A2938 RMK AO2 T10821115
3:55 AMW 12G 262 OVC020
-SN17124 80% 29.390
KEFK 180855Z AUTO 28010G23KT 2SM -SN OVC020 M08/M11 A2939 RMK AO2 T10851114
4:15 AMWNW 15G 301.75 BKN016
OVC024
-SN17122 81% 29.40
KEFK 180915Z AUTO 29013G26KT 250V320 1 3/4SM -SN BKN016 OVC024 M08/M11 A2940 RMK AO2 T10851112
4:35 AMW 17G 250.75 BKN011
OVC017
-SN16140 89% 29.420
KEFK 180935Z AUTO 27015G22KT 3/4SM -SN BKN011 OVC017 M09/M10 A2942 RMK AO2 T10881103
4:55 AMW 22G 311 BKN013
OVC018
-SN1511-3 81% 29.430
KEFK 180955Z AUTO 28019G27KT 1SM -SN BKN013 OVC018 M09/M12 A2943 RMK AO2 T10921119
5:15 AMW 21G 301 OVC013
-SN1511-3 84% 29.440
KEFK 181015Z AUTO 27018G26KT 1SM -SN OVC013 M09/M12 A2944 RMK AO2 T10951117
5:35 AMW 18G 300.75 OVC015
-SN1410-3 81% 29.460
KEFK 181035Z AUTO 27016G26KT 3/4SM -SN OVC015 M10/M12 A2946 RMK AO2 T10981125
5:55 AMW 23G 370.75 OVC015
-SN148-5 78% 29.490
KEFK 181055Z AUTO 27020G32KT 3/4SM -SN OVC015 M10/M13 A2949 RMK AO2 T11011132
6:15 AMW 15G 281.25 OVC015
-SN138-3 79% 29.50
KEFK 181115Z AUTO 28013G24KT 1 1/4SM -SN OVC015 M10/M13 A2950 RMK AO2 T11051134
6:35 AMW 13G 281.25 OVC015
-SN138-2 79% 29.520
KEFK 181135Z AUTO 27011G24KT 1 1/4SM -SN OVC015 M11/M14 A2952 RMK AO2 T11061136
6:55 AMW 17G 251.25 OVC015
-SN137-4 21 13 79% 29.530
KEFK 181155Z AUTO 27015G22KT 1 1/4SM -SN OVC015 M11/M14 A2953 RMK AO2 T11081137 11063 21108
7:15 AMW 15G 261.25 BKN015
BKN022
OVC027
-SN137-3 77% 29.560
KEFK 181215Z AUTO 28013G23KT 250V320 1 1/4SM -SN BKN015 BKN022 OVC027 M11/M14 A2956 RMK AO2 T11081140
7:35 AMW 23G 311 OVC015
-SN127-7 79% 29.560
KEFK 181235Z AUTO 27020G27KT 1SM -SN OVC015 M11/M14 A2956 RMK AO2 T11111140
7:55 AMW 16G 281.25 OVC015
-SN126-5 77% 29.580
KEFK 181255Z AUTO 27014G24KT 1 1/4SM -SN OVC015 M11/M14 A2958 RMK AO2 T11121145
8:15 AMWNW 16G 231.5 BKN017
OVC026
-SN126-5 78% 29.60
KEFK 181315Z AUTO 30014G20KT 1 1/2SM -SN BKN017 OVC026 M11/M14 A2960 RMK AO2 T11141145
8:35 AMW 10G 181.5 BKN017
OVC024
-SN116-2 77% 29.620
KEFK 181335Z AUTO 28009G16KT 1 1/2SM -SN BKN017 OVC024 M11/M15 A2962 RMK AO2 T11151147
8:55 AMW 15G 231 BKN017
OVC024
-SN115-5 75% 29.630
KEFK 181355Z AUTO 28013G20KT 1SM -SN BKN017 OVC024 M11/M15 A2963 RMK AO2 T11151151
9:15 AMW 12G 221.25 OVC021
HZ114-3 72% 29.640
KEFK 181415Z AUTO 28010G19KT 1 1/4SM HZ OVC021 M11/M15 A2964 RMK AO2 T11151155
9:35 AMW 171.5 OVC019
HZ114-6 72% 29.660
KEFK 181435Z AUTO 27015KT 1 1/2SM HZ OVC019 M12/M16 A2966 RMK AO2 T11161156
9:55 AMWNW 20G 251.5 OVC019
HZ102-8 69% 29.660
KEFK 181455Z AUTO 29017G22KT 1 1/2SM HZ OVC019 M12/M16 A2966 RMK AO2 T11201165
10:15 AMW 18G 301.25 BKN014
BKN023
OVC060
-SN102-8 68% 29.670
KEFK 181515Z AUTO 28016G26KT 1 1/4SM -SN BKN014 BKN023 OVC060 M12/M17 A2967 RMK AO2 T11211168
10:35 AMW 20G 261.25 OVC011
HZ102-9 70% 29.680
KEFK 181535Z AUTO 28017G23KT 1 1/4SM HZ OVC011 M12/M16 A2968 RMK AO2 T11221165
10:55 AMW 21G 301.5 OVC013
-SN90-10 66% 29.690
KEFK 181555Z AUTO 27018G26KT 1 1/2SM -SN OVC013 M13/M18 A2969 RMK AO2 VIS 1V2 1/2 T11261177
11:15 AMW 18G 261.75 OVC013
HZ91-9 69% 29.70
KEFK 181615Z AUTO 27016G23KT 1 3/4SM HZ OVC013 M13/M17 A2970 RMK AO2 VIS 1 1/4V3 T11261171
11:35 AMWSW 20G 242 BKN013
OVC021
HZ90-10 67% 29.720
KEFK 181635Z AUTO 25017G21KT 2SM HZ BKN013 OVC021 M13/M18 A2972 RMK AO2 VIS 1 1/4V3 T11291178
11:55 AMW 95 SCT015
OVC023
HZ8-2-5 64% 29.720
KEFK 181655Z AUTO 28008KT 5SM HZ SCT015 OVC023 M13/M19 A2972 RMK AO2 T11321186
12:15 PMW 12G 173 OVC021
HZ8-1-7 65% 29.740
KEFK 181715Z AUTO 28010G15KT 250V310 3SM HZ OVC021 M13/M18 A2974 RMK AO2 T11321184
12:35 PMW 16G 234 BKN021
OVC028
HZ8-3-10 61% 29.750
KEFK 181735Z AUTO 26014G20KT 4SM HZ BKN021 OVC028 M13/M19 A2975 RMK AO2 T11341193
12:55 PMNW 10G 212 SCT016
OVC023
-SN8-1-7 13 8 67% 29.760
KEFK 181755Z AUTO 31009G18KT 2SM -SN SCT016 OVC023 M14/M18 A2976 RMK AO2 T11361185 11108 21136
1:15 PMNW 8G 175 SCT020
BKN026
OVC031
HZ7-4-6 60% 29.780
KEFK 181815Z AUTO 31007G15KT 5SM HZ SCT020 BKN026 OVC031 M14/M20 A2978 RMK AO2 T11401201
1:35 PMWNW 13G 227 BKN025
OVC031
7-4-9 59% 29.80
KEFK 181835Z AUTO 29011G19KT 7SM BKN025 OVC031 M14/M20 A2980 RMK AO2 T11401203
1:55 PMWNW 5G 184 OVC025
HZ6-5-3 59% 29.820
KEFK 181855Z AUTO 29004G16KT 4SM HZ OVC025 M14/M20 A2982 RMK AO2 T11431205
2:15 PMWNW 8G 224 OVC025
HZ7-5-6 58% 29.820
KEFK 181915Z AUTO 30007G19KT 270V360 4SM HZ OVC025 M14/M20 A2982 RMK AO2 T11401204
2:35 PMWSW 810 SCT023
6-7-7 53% 29.840
KEFK 181935Z AUTO 25007KT 10SM SCT023 M14/M22 A2984 RMK AO2 T11441218
2:55 PMW 5G 1810 SCT027
6-7-3 53% 29.860
KEFK 181955Z AUTO 27004G16KT 10SM SCT027 M14/M22 A2986 RMK AO2 T11451219
3:15 PMW 15G 2210 SCT027
5-8-13 53% 29.880
KEFK 182015Z AUTO 27013G19KT 10SM SCT027 M15/M22 A2988 RMK AO2 T11491224
3:35 PMW 510 SCT026
5-8-4 53% 29.890
KEFK 182035Z AUTO 28004KT 10SM SCT026 M15/M22 A2989 RMK AO2 T11511225
3:55 PMW 310 SCT026
4-9-3 54% 29.910
KEFK 182055Z AUTO 27003KT 10SM SCT026 M15/M23 A2991 RMK AO2 T11551228
4:15 PMW 510 CLR
3-10-7 55% 29.930
KEFK 182115Z AUTO 27004KT 10SM CLR M16/M23 A2993 RMK AO2 T11621231
4:35 PMWSW 12G 1710 CLR
3-10-14 55% 29.940
KEFK 182135Z AUTO 24010G15KT 10SM CLR M16/M23 A2994 RMK AO2 T11621233
4:55 PMW 610 CLR
2-10-9 55% 29.950
KEFK 182155Z AUTO 26005KT 10SM CLR M16/M23 A2995 RMK AO2 T11651235
5:15 PMW 310 CLR
1-10-6 56% 29.970
KEFK 182215Z AUTO 27003KT 10SM CLR M17/M24 A2997 RMK AO2 T11701236
5:35 PMWNW 910 CLR
2-11-13 54% 29.990
KEFK 182235Z AUTO 30008KT 10SM CLR M17/M24 A2999 RMK AO2 T11671239
5:55 PMWNW 710 CLR
1-11-11 55% 300
KEFK 182255Z AUTO 30006KT 10SM CLR M17/M24 A3000 RMK AO2 T11701240
6:15 PMW 610 CLR
2-11-9 53% 30.020
KEFK 182315Z AUTO 28005KT 10SM CLR M17/M24 A3002 RMK AO2 T11671240
6:35 PMNW 610 CLR
1-12-10 53% 30.030
KEFK 182335Z AUTO 32005KT 10SM CLR M17/M24 A3003 RMK AO2 T11711244
6:55 PMNW 310 CLR
1-12-6 7 1 53% 30.030
KEFK 182355Z AUTO 32003KT 10SM CLR M17/M24 A3003 RMK AO2 T11701243 11137 21172
7:15 PMWNW 310 CLR
2-12-6 51% 30.030
KEFK 190015Z AUTO 29003KT 10SM CLR M17/M25 A3003 RMK AO2 T11691246
7:35 PMWNW 310 CLR
0-12-7 53% 30.040
KEFK 190035Z AUTO 29003KT 10SM CLR M17/M25 A3004 RMK AO2 T11751247
7:55 PMWSW 310 CLR
1-12-7 54% 30.050
KEFK 190055Z AUTO 25003KT 10SM CLR M17/M24 A3005 RMK AO2 T11731244
8:15 PMCalm10 CLR
1-121 53% 30.060
KEFK 190115Z AUTO 00000KT 10SM CLR M17/M24 A3006 RMK AO2 T11721245
8:35 PMW 710 CLR
0-12-13 55% 30.060
KEFK 190135Z AUTO 26006KT 10SM CLR M18/M24 A3006 RMK AO2 T11761245
8:55 PMWNW 710 CLR
0-11-13 57% 30.060
KEFK 190155Z AUTO 29006KT 10SM CLR M18/M24 A3006 RMK AO2 T11761240
9:15 PMCalm10 CLR
0-110 57% 30.060
KEFK 190215Z AUTO 00000KT 10SM CLR M18/M24 A3006 RMK AO2 T11761241
9:35 PMCalm10 CLR
-2-12-2 60% 30.070
KEFK 190235Z AUTO 00000KT 10SM CLR M19/M24 A3007 RMK AO2 T11861245
9:55 PMCalm10 CLR
-3-14-3 60% 30.070
KEFK 190255Z AUTO 00000KT 10SM CLR M19/M25 A3007 RMK AO2 T11951253
10:15 PMCalm10 CLR
-3-11-3 66% 30.080
KEFK 190315Z AUTO 00000KT 10SM CLR M19/M24 A3008 RMK AO2 T11941241
10:35 PMCalm10 CLR
-3-13-3 59% 30.090
KEFK 190335Z AUTO 00000KT 10SM CLR M19/M25 A3009 RMK AO2 T11931252
10:55 PMCalm10 CLR
-2-11-2 66% 30.090
KEFK 190355Z AUTO 00000KT 10SM CLR M19/M24 A3009 RMK AO2 T11901238
11:15 PMSE 310 CLR
-5-11-13 72% 30.080
KEFK 190415Z AUTO 14003KT 10SM CLR M20/M24 A3008 RMK AO2 T12041241
11:35 PMSW 310 CLR
-6-14-15 70% 30.090
KEFK 190435Z AUTO 23003KT 10SM CLR M21/M25 A3009 RMK AO2 T12131253

The IEM API webservice that provided data to this page. For more details, see documentation.

Data Notes

  • For recent years, this page also optionally shows observations from the MADIS High Frequency METAR dataset. This dataset had a problem with temperatures detailed here.